createdAt,value
2023-02-12T00:01:02.959Z,17.57
2023-02-12T00:06:05.999Z,16.77
2023-02-12T00:11:12.697Z,16.77
2023-02-12T00:16:17.767Z,16.63
2023-02-12T00:21:19.898Z,18.20
2023-02-12T00:26:22.763Z,17.07
2023-02-12T00:31:28.240Z,15.77
2023-02-12T00:36:32.576Z,17.00
2023-02-12T00:41:34.266Z,17.63
2023-02-12T00:46:36.056Z,18.30
2023-02-12T00:51:37.945Z,18.80
2023-02-12T00:56:39.921Z,18.20
2023-02-12T01:01:41.605Z,20.50
2023-02-12T01:06:43.358Z,19.57
2023-02-12T01:11:44.991Z,16.97
2023-02-12T01:16:46.697Z,18.03
2023-02-12T01:21:48.358Z,17.17
2023-02-12T01:26:50.139Z,18.07
2023-02-12T01:31:51.899Z,17.30
2023-02-12T01:36:53.639Z,16.57
2023-02-12T01:41:55.293Z,16.17
2023-02-12T01:47:02.585Z,15.87
2023-02-12T01:52:23.813Z,17.97
2023-02-12T01:57:27.207Z,16.47
2023-02-12T02:02:30.601Z,15.83
2023-02-12T02:07:32.863Z,15.43
2023-02-12T02:12:53.318Z,17.37
2023-02-12T02:18:34.834Z,16.03
2023-02-12T02:24:13.587Z,16.60
2023-02-12T02:29:31.990Z,15.13
2023-02-12T02:34:50.091Z,15.80
2023-02-12T02:40:22.565Z,17.27
2023-02-12T02:45:36.789Z,15.27
2023-02-12T02:50:44.203Z,17.00
2023-02-12T02:55:50.325Z,15.67
2023-02-12T03:01:03.822Z,16.57
2023-02-12T03:06:14.371Z,15.80
2023-02-12T03:11:26.561Z,16.03
2023-02-12T03:16:32.633Z,17.13
2023-02-12T03:21:50.103Z,17.43
2023-02-12T03:27:02.556Z,17.20
2023-02-12T03:32:41.095Z,16.23
2023-02-12T03:38:02.743Z,16.47
2023-02-12T03:43:23.040Z,16.80
2023-02-12T03:48:36.361Z,17.47
2023-02-12T03:53:38.011Z,18.70
2023-02-12T03:58:41.500Z,19.07
2023-02-12T04:03:43.795Z,18.57
2023-02-12T04:08:45.564Z,17.10
2023-02-12T04:14:14.200Z,16.97
2023-02-12T04:19:25.812Z,15.87
2023-02-12T04:25:19.975Z,16.80
2023-02-12T04:30:29.733Z,18.80
2023-02-12T04:35:42.663Z,18.13
2023-02-12T04:40:44.715Z,18.53
2023-02-12T04:45:46.438Z,20.17
2023-02-12T04:50:48.377Z,18.33
2023-02-12T04:55:50.750Z,17.57
2023-02-12T05:00:52.487Z,18.57
2023-02-12T05:05:54.691Z,21.47
2023-02-12T05:10:56.653Z,18.80
2023-02-12T05:15:58.681Z,18.13
2023-02-12T05:21:03.252Z,18.50
2023-02-12T05:26:18.948Z,18.83
2023-02-12T05:31:21.757Z,19.87
2023-02-12T05:36:24.909Z,18.43
2023-02-12T05:41:27.056Z,16.83
2023-02-12T05:46:28.810Z,18.90
2023-02-12T05:51:32.130Z,20.27
2023-02-12T05:56:37.043Z,23.27
2023-02-12T06:01:41.273Z,16.47
2023-02-12T06:06:43.801Z,15.53
2023-02-12T06:11:45.707Z,17.17
2023-02-12T06:16:49.686Z,17.43
2023-02-12T06:21:51.453Z,19.63
2023-02-12T06:26:53.236Z,16.90
2023-02-12T06:31:55.220Z,18.03
2023-02-12T06:36:57.192Z,18.67
2023-02-12T06:41:58.913Z,18.03
2023-02-12T06:47:00.705Z,19.10
2023-02-12T06:52:03.530Z,19.20
2023-02-12T06:57:05.382Z,18.47
2023-02-12T07:02:07.132Z,19.20
2023-02-12T07:07:09.496Z,18.20
2023-02-12T07:12:11.251Z,17.67
2023-02-12T07:17:13.035Z,20.20
2023-02-12T07:22:14.768Z,18.73
2023-02-12T07:27:16.528Z,18.20
2023-02-12T07:32:18.248Z,17.57
2023-02-12T07:37:22.747Z,19.03
2023-02-12T07:42:24.610Z,20.03
2023-02-12T07:47:26.395Z,20.67
2023-02-12T07:52:28.149Z,20.33
2023-02-12T07:57:29.872Z,19.30
2023-02-12T08:02:31.661Z,17.50
2023-02-12T08:07:33.449Z,19.67
2023-02-12T08:12:35.397Z,20.07
2023-02-12T08:17:37.651Z,19.53
2023-02-12T08:22:39.380Z,19.83
2023-02-12T08:27:42.162Z,19.47
2023-02-12T08:32:43.926Z,17.93
2023-02-12T08:37:45.650Z,19.07
2023-02-12T08:42:47.427Z,17.60
2023-02-12T08:47:49.182Z,17.20
2023-02-12T08:52:50.915Z,19.07
2023-02-12T08:57:57.836Z,19.50
2023-02-12T09:02:59.787Z,18.47
2023-02-12T09:08:01.512Z,19.43
2023-02-12T09:13:03.341Z,19.07
2023-02-12T09:18:05.578Z,19.07
2023-02-12T09:23:08.933Z,20.57
2023-02-12T09:28:12.491Z,22.90
2023-02-12T09:33:14.285Z,25.37
2023-02-12T09:38:16.073Z,21.23
2023-02-12T09:43:40.284Z,23.93
2023-02-12T09:49:16.454Z,21.80
2023-02-12T09:54:20.979Z,24.20
2023-02-12T09:59:40.513Z,25.73
2023-02-12T10:05:00.208Z,26.47
2023-02-12T10:10:40.355Z,27.80
2023-02-12T10:15:55.854Z,25.37
2023-02-12T10:21:45.780Z,26.47
2023-02-12T10:26:49.912Z,23.87
2023-02-12T10:32:04.495Z,23.60
2023-02-12T10:37:28.987Z,22.60
2023-02-12T10:42:39.200Z,22.43
2023-02-12T10:47:41.340Z,21.20
2023-02-12T10:52:54.863Z,21.13
2023-02-12T10:57:57.659Z,20.23
2023-02-12T11:03:13.664Z,20.70
2023-02-12T11:08:36.798Z,19.92
2023-02-12T11:13:41.607Z,19.40
2023-02-12T11:18:43.535Z,21.37
2023-02-12T11:23:46.178Z,20.50
2023-02-12T11:28:57.459Z,20.77
2023-02-12T11:34:20.224Z,21.03
2023-02-12T11:39:28.663Z,22.37
2023-02-12T11:44:35.178Z,21.63
2023-02-12T11:49:57.164Z,20.13
2023-02-12T11:55:03.382Z,20.47
2023-02-12T12:00:26.116Z,17.00
2023-02-12T12:05:45.756Z,17.37
2023-02-12T12:10:54.088Z,19.17
2023-02-12T12:16:27.631Z,18.17
2023-02-12T12:22:09.806Z,14.90
2023-02-12T12:27:45.186Z,13.30
2023-02-12T12:32:49.356Z,14.63
2023-02-12T12:38:03.415Z,15.83
2023-02-12T12:43:40.260Z,14.95
2023-02-12T12:48:52.594Z,13.02
2023-02-12T12:54:10.126Z,13.18
2023-02-12T12:59:44.190Z,12.27
2023-02-12T13:04:45.887Z,11.32
2023-02-12T13:10:02.624Z,12.55
2023-02-12T13:15:25.143Z,12.23
2023-02-12T13:20:51.400Z,11.50
2023-02-12T13:26:18.800Z,10.63
2023-02-12T13:31:32.957Z,9.05
2023-02-12T13:36:37.765Z,8.60
2023-02-12T13:41:44.159Z,8.30
2023-02-12T13:47:12.312Z,8.60
2023-02-12T13:52:34.336Z,8.52
2023-02-12T13:57:36.172Z,9.18
2023-02-12T14:02:37.869Z,8.77
2023-02-12T14:07:52.147Z,9.85
2023-02-12T14:12:58.053Z,10.43
2023-02-12T14:18:02.615Z,12.10
2023-02-12T14:23:29.068Z,11.57
2023-02-12T14:28:52.154Z,12.17
2023-02-12T14:34:15.379Z,12.13
2023-02-12T14:39:20.150Z,12.50
2023-02-12T14:44:23.344Z,13.23
2023-02-12T14:49:34.227Z,14.20
2023-02-12T14:55:06.480Z,13.37
2023-02-12T15:00:17.393Z,13.07
2023-02-12T15:05:24.091Z,14.10
2023-02-12T15:10:32.696Z,15.10
2023-02-12T15:15:39.342Z,15.87
2023-02-12T15:20:50.656Z,15.93
2023-02-12T15:25:52.482Z,15.13
2023-02-12T15:30:56.527Z,14.97
2023-02-12T15:35:59.671Z,16.13
2023-02-12T15:41:03.617Z,15.70
2023-02-12T15:46:14.213Z,26.57
2023-02-12T15:51:24.155Z,20.00
2023-02-12T15:56:27.158Z,17.50
2023-02-12T16:01:32.200Z,18.47
2023-02-12T16:06:36.754Z,15.97
2023-02-12T16:11:38.857Z,15.73
2023-02-12T16:16:45.628Z,15.20
2023-02-12T16:21:58.682Z,16.90
2023-02-12T16:27:09.682Z,14.63
2023-02-12T16:32:38.526Z,13.73
2023-02-12T16:37:47.282Z,15.50
2023-02-12T16:42:48.963Z,15.87
2023-02-12T16:47:51.530Z,18.27
2023-02-12T16:53:01.496Z,16.93
2023-02-12T16:58:03.229Z,17.00
2023-02-12T17:03:05.332Z,16.07
2023-02-12T17:08:13.575Z,13.50
2023-02-12T17:13:16.567Z,14.17
2023-02-12T17:18:18.729Z,14.03
2023-02-12T17:23:21.157Z,15.10
2023-02-12T17:28:25.087Z,15.90
2023-02-12T17:33:27.686Z,16.80
2023-02-12T17:38:29.415Z,26.60
2023-02-12T17:43:31.192Z,23.67
2023-02-12T17:48:32.912Z,19.87
2023-02-12T17:53:34.675Z,21.20
2023-02-12T17:58:36.437Z,21.30
2023-02-12T18:03:38.658Z,20.30
2023-02-12T18:08:41.502Z,20.83
2023-02-12T18:13:43.285Z,19.93
2023-02-12T18:18:45.078Z,17.50
2023-02-12T18:23:47.050Z,17.37
2023-02-12T18:28:49.175Z,16.33
2023-02-12T18:33:51.509Z,23.33
2023-02-12T18:38:53.660Z,21.40
2023-02-12T18:43:57.292Z,40.50
2023-02-12T18:48:59.528Z,28.10
2023-02-12T18:54:05.275Z,26.50
2023-02-12T18:59:08.436Z,22.03
2023-02-12T19:04:12.719Z,20.57
2023-02-12T19:09:16.756Z,22.37
2023-02-12T19:14:20.732Z,18.70
2023-02-12T19:19:23.747Z,19.90
2023-02-12T19:24:28.700Z,18.23
2023-02-12T19:29:36.902Z,19.10
2023-02-12T19:34:38.617Z,19.40
2023-02-12T19:39:40.763Z,18.93
2023-02-12T19:44:42.643Z,17.80
2023-02-12T19:49:44.466Z,19.80
2023-02-12T19:54:46.210Z,19.03
2023-02-12T19:59:47.936Z,18.47
2023-02-12T20:04:49.846Z,20.13
2023-02-12T20:09:52.240Z,20.40
2023-02-12T20:14:55.649Z,21.10
2023-02-12T20:19:57.404Z,17.10
2023-02-12T20:24:59.347Z,19.33
2023-02-12T20:30:01.099Z,18.97
2023-02-12T20:35:02.809Z,18.73
2023-02-12T20:40:05.205Z,18.47
2023-02-12T20:45:07.234Z,17.90
2023-02-12T20:50:09.279Z,18.23
2023-02-12T20:55:11.252Z,18.00
2023-02-12T21:00:13.881Z,18.07
2023-02-12T21:05:15.686Z,16.30
2023-02-12T21:10:17.797Z,16.87
2023-02-12T21:15:19.548Z,16.70
2023-02-12T21:20:21.236Z,16.40
2023-02-12T21:25:23.089Z,16.10
2023-02-12T21:30:25.084Z,16.43
2023-02-12T21:35:26.796Z,15.60
2023-02-12T21:40:28.565Z,16.23
2023-02-12T21:45:30.364Z,15.93
2023-02-12T21:50:34.692Z,15.30
2023-02-12T21:55:37.723Z,14.13
2023-02-12T22:00:39.641Z,14.60
2023-02-12T22:05:41.372Z,16.53
2023-02-12T22:10:43.053Z,15.33
2023-02-12T22:15:44.707Z,15.00
2023-02-12T22:20:46.407Z,15.00
2023-02-12T22:25:48.087Z,15.17
2023-02-12T22:30:49.781Z,15.90
2023-02-12T22:35:51.618Z,16.50
2023-02-12T22:40:53.513Z,17.17
2023-02-12T22:45:55.308Z,16.57
2023-02-12T22:50:58.443Z,15.67
2023-02-12T22:56:03.895Z,14.43
2023-02-12T23:01:12.254Z,15.30
2023-02-12T23:06:16.552Z,15.83
2023-02-12T23:11:18.350Z,14.87
2023-02-12T23:16:20.698Z,15.77
2023-02-12T23:21:22.597Z,14.77
2023-02-12T23:26:24.506Z,15.30
2023-02-12T23:31:26.360Z,15.10
2023-02-12T23:36:29.076Z,14.50
2023-02-12T23:41:30.788Z,14.20
2023-02-12T23:46:32.505Z,14.27
2023-02-12T23:51:34.862Z,14.47
2023-02-12T23:56:36.650Z,15.57
